Aviation Digital Data Service (ADDS)

Output produced by METARs form (0500 UTC 30 July 2014)
found at http://aviationweather.gov/adds/metars/
 
KSSI 292320Z 3000/3024 12010KT P6SM FEW080 
     FM300300 VRB02KT P6SM SKC 
     FM301400 33006KT P6SM SKC